»·PEaware :: N5952C KSBA-KBUR

N5952C :: KSBA-KBUR

FLIGHT INFORMATION

Flight Status: Arrived
Operator: Privately registered:
United States
More flights under this callsign
Pilot: Loren F. (432)
Aircraft: CESSNA 172 SKYHAWK
(C172)
More flights by this aircraft type
Origin: KSBA Santa Barbara Mun
United States
Destination: KBUR Bob Hope-Burbank
United States
More flights between these airports :: More routes between these airports
Route: +
File this flight plan on PilotEdge
Remarks:
Altitude:
(Current/Filed)
0ft
Speed:
(Current/Filed)
0kts
Departed: 04-Jan-18 12:04 PM
Arrived: 04-Jan-18 01:12 PM
Distance/Time
Traveled:
75nm/1:08
Distance/Time
To Go:
Arrived

Flight Plot

Page will automatically refresh every two minutes.


Map Options




Map Legend


Flown Route
Filed Route
Departure Airport
Arrival Airport
Navaid (VOR, NDB)
Fix

Horizontal Profiles

Position Reports

Time Latitude Longitude Heading Altitude Ground
Speed
04-Jan-18 11:51 34.422664 -119.835593 340 10ft 0kts
04-Jan-18 11:52 34.422664 -119.835593 340 10ft 0kts
04-Jan-18 11:53 34.422664 -119.835593 340 10ft 0kts
04-Jan-18 11:54 34.422664 -119.835593 340 10ft 0kts
04-Jan-18 11:55 34.422664 -119.835593 340 10ft 0kts
04-Jan-18 11:56 34.422664 -119.835593 340 10ft 0kts
04-Jan-18 11:57 34.422664 -119.835593 340 10ft 0kts
04-Jan-18 11:58 34.422664 -119.835593 340 10ft 0kts
04-Jan-18 11:59 34.422664 -119.835593 340 10ft 0kts
04-Jan-18 12:00 34.422664 -119.835593 340 10ft 0kts
04-Jan-18 12:01 34.422664 -119.835593 340 10ft 0kts
04-Jan-18 12:02 34.422706 -119.836171 265 10ft 12kts
04-Jan-18 12:03 34.422742 -119.836834 269 12ft 4kts
04-Jan-18 12:04 34.425409 -119.837947 346 12ft 21kts
04-Jan-18 12:05 34.427708 -119.838651 344 12ft 9kts
04-Jan-18 12:06 34.430654 -119.839741 267 14ft 5kts
04-Jan-18 12:07 34.430635 -119.839837 248 14ft 0kts
04-Jan-18 12:08 34.430635 -119.839837 248 14ft 0kts
04-Jan-18 12:09 34.429997 -119.840133 164 14ft 0kts
04-Jan-18 12:10 34.416568 -119.836099 153 402ft 84kts
04-Jan-18 12:11 34.389975 -119.826359 161 999ft 106kts
04-Jan-18 12:12 34.361229 -119.816327 161 1516ft 116kts
04-Jan-18 12:13 34.328535 -119.805459 161 1697ft 124kts
04-Jan-18 12:14 34.295637 -119.794837 161 2037ft 117kts
04-Jan-18 12:15 34.263288 -119.784460 161 2241ft 124kts
04-Jan-18 12:16 34.237279 -119.782364 161 3057ft 72kts
04-Jan-18 12:17 34.240733 -119.758756 110 3630ft 85kts
04-Jan-18 12:18 34.224290 -119.735474 154 3783ft 118kts
04-Jan-18 12:19 34.218613 -119.716043 93 4396ft 98kts
04-Jan-18 12:20 34.221129 -119.688590 38 4879ft 103kts
04-Jan-18 12:21 34.223442 -119.664591 78 5480ft 81kts
04-Jan-18 12:22 34.220704 -119.642552 151 5968ft 99kts
04-Jan-18 12:23 34.217637 -119.614909 96 6565ft 98kts
04-Jan-18 12:24 34.208893 -119.585996 119 7162ft 100kts
04-Jan-18 12:25 34.198350 -119.556751 87 7689ft 102kts
04-Jan-18 12:26 34.200947 -119.530197 108 7574ft 117kts
04-Jan-18 12:27 34.191227 -119.508369 134 7405ft 118kts
04-Jan-18 12:28 34.176015 -119.485733 119 7248ft 119kts
04-Jan-18 12:29 34.163565 -119.464195 132 7548ft 84kts
04-Jan-18 12:30 34.151764 -119.446610 139 7582ft 90kts
04-Jan-18 12:31 34.142458 -119.430872 117 7561ft 92kts
04-Jan-18 12:32 34.130265 -119.419147 155 7532ft 85kts
04-Jan-18 12:33 34.119760 -119.404804 130 7485ft 90kts
04-Jan-18 12:34 34.118718 -119.385582 133 7484ft 84kts
04-Jan-18 12:35 34.108785 -119.368681 128 7674ft 88kts
04-Jan-18 12:36 34.097541 -119.351604 123 7439ft 103kts
04-Jan-18 12:37 34.097549 -119.332499 57 7113ft 113kts
04-Jan-18 12:38 34.106253 -119.314460 49 7042ft 98kts
04-Jan-18 12:39 34.108493 -119.294514 110 7187ft 99kts
04-Jan-18 12:40 34.102566 -119.272409 79 7137ft 111kts
04-Jan-18 12:41 34.101648 -119.247417 86 7298ft 103kts
04-Jan-18 12:42 34.102437 -119.222658 85 7207ft 117kts
04-Jan-18 12:43 34.102522 -119.198285 85 7208ft 118kts
04-Jan-18 12:44 34.102418 -119.174212 96 7213ft 117kts
04-Jan-18 12:45 34.105385 -119.151696 83 7204ft 108kts
04-Jan-18 12:46 34.110643 -119.124491 83 7199ft 103kts
04-Jan-18 12:47 34.116451 -119.096019 83 7194ft 107kts
04-Jan-18 12:48 34.122596 -119.066241 83 7196ft 112kts
04-Jan-18 12:49 34.127072 -119.031136 89 7196ft 113kts
04-Jan-18 12:50 34.128698 -119.003545 97 7197ft 112kts
04-Jan-18 12:51 34.129371 -118.977603 71 6996ft 128kts
04-Jan-18 12:52 34.136525 -118.955127 118 7118ft 109kts
04-Jan-18 12:53 34.139496 -118.933457 59 6941ft 136kts
04-Jan-18 12:54 34.143570 -118.913078 97 7070ft 117kts
04-Jan-18 12:55 34.144817 -118.888564 110 6993ft 115kts
04-Jan-18 12:56 34.141195 -118.864876 80 6841ft 125kts
04-Jan-18 12:57 34.143671 -118.840786 66 6887ft 119kts
04-Jan-18 12:58 34.153789 -118.817990 64 7177ft 104kts
04-Jan-18 12:59 34.165404 -118.787064 71 6753ft 138kts
04-Jan-18 13:00 34.166739 -118.749582 127 5279ft 137kts
04-Jan-18 13:01 34.147650 -118.720488 64 3654ft 117kts
04-Jan-18 13:02 34.161909 -118.699162 55 3082ft 94kts
04-Jan-18 13:03 34.150413 -118.673530 115 3366ft 87kts
04-Jan-18 13:04 34.143022 -118.645835 111 4136ft 90kts
04-Jan-18 13:05 34.135712 -118.616961 131 4694ft 102kts
04-Jan-18 13:06 34.131107 -118.587925 93 5449ft 92kts
04-Jan-18 13:07 34.122417 -118.558075 83 6091ft 95kts
04-Jan-18 13:08 34.123638 -118.526070 91 6500ft 100kts
04-Jan-18 13:09 34.112326 -118.499715 139 6736ft 95kts
04-Jan-18 13:10 34.109634 -118.471357 139 6656ft 111kts
04-Jan-18 13:11 34.110035 -118.445791 85 5972ft 145kts
04-Jan-18 13:12 34.119743 -118.407186 76 4648ft 142kts
04-Jan-18 13:13 34.121179 -118.378127 66 3332ft 119kts
04-Jan-18 13:14 34.135147 -118.349677 49 2060ft 82kts
04-Jan-18 13:15 34.156653 -118.345132 347 1336ft 66kts
04-Jan-18 13:16 34.171081 -118.349236 349 1050ft 68kts
04-Jan-18 13:17 34.188520 -118.353911 349 863ft 62kts
04-Jan-18 13:18 34.202915 -118.357879 347 729ft 37kts
04-Jan-18 13:19 34.206181 -118.359434 252 742ft 0kts
04-Jan-18 13:20 34.206181 -118.359434 252 742ft 0kts

Navigation Log

Ident Type
1. KSBA Airport
2. KBUR Airport